Time;durP1;ratioP1;P1;durP2;ratioP2;P2;SDS_P1;SDS_P2;PMS_P1;PMS_P2;Temp;Humidity;BMP_temperature;BMP_pressure;BME280_temperature;BME280_humidity;BME280_pressure;Samples;Min_cycle;Max_cycle;Signal;HPM_P1;HPM_P2
2021/08/29 00:01:19;;;;;;;8.30;7.25;;;;;;;22.23;45.42;102756.06;5032721;28;20030;-82
2021/08/29 00:03:45;;;;;;;15.25;7.93;;;;;;;22.28;45.45;102764.19;5015403;28;20395;-82
2021/08/29 00:06:10;;;;;;;12.40;7.45;;;;;;;22.36;45.28;102752.94;5015220;28;20053;-82
2021/08/29 00:08:36;;;;;;;10.90;7.28;;;;;;;22.37;45.27;102751.81;5015467;28;20087;-82
2021/08/29 00:11:01;;;;;;;11.40;7.82;;;;;;;22.40;44.96;102742.75;5015111;28;20545;-86
2021/08/29 00:13:27;;;;;;;12.20;7.70;;;;;;;22.29;45.39;102760.22;5015348;28;20056;-81
2021/08/29 00:15:53;;;;;;;11.15;7.22;;;;;;;22.34;44.99;102752.47;5032979;28;20079;-81
2021/08/29 00:18:19;;;;;;;10.90;7.32;;;;;;;22.42;44.85;102750.75;5015797;28;20029;-82
2021/08/29 00:20:45;;;;;;;10.65;7.25;;;;;;;22.43;44.84;102747.63;5033259;28;20057;-81
2021/08/29 00:23:11;;;;;;;12.88;8.15;;;;;;;22.43;44.91;102755.16;5015116;28;20033;-88
2021/08/29 00:25:36;;;;;;;11.57;7.28;;;;;;;22.30;44.77;102759.91;5015458;28;20029;-81
2021/08/29 00:28:03;;;;;;;7.80;6.40;;;;;;;22.14;44.89;102756.97;5015414;28;20068;-81
2021/08/29 00:30:29;;;;;;;11.23;7.68;;;;;;;22.03;44.89;102757.69;5015165;28;20395;-81
2021/08/29 00:32:55;;;;;;;10.85;8.10;;;;;;;22.04;44.99;102760.13;5015006;28;20026;-81
2021/08/29 00:35:21;;;;;;;12.13;7.45;;;;;;;22.04;45.16;102754.56;5015072;28;20120;-83
2021/08/29 00:37:47;;;;;;;14.85;9.18;;;;;;;22.08;44.81;102752.78;5014962;28;20390;-81
2021/08/29 00:40:15;;;;;;;16.33;8.30;;;;;;;22.01;45.05;102755.25;5015052;28;20028;-81
2021/08/29 00:42:41;;;;;;;14.55;8.35;;;;;;;22.04;45.13;102750.97;5033064;28;20041;-81
2021/08/29 00:45:08;;;;;;;12.93;8.80;;;;;;;21.89;45.55;102746.84;5014850;28;20029;-81
2021/08/29 00:47:33;;;;;;;17.25;8.57;;;;;;;21.92;45.53;102737.84;5032721;28;20557;-82
2021/08/29 00:50:01;;;;;;;13.23;8.65;;;;;;;21.79;45.73;102741.72;5015027;28;20040;-85
2021/08/29 00:52:27;;;;;;;10.98;8.32;;;;;;;21.80;45.78;102735.81;5015188;28;20030;-89
2021/08/29 00:54:52;;;;;;;10.48;7.70;;;;;;;21.79;45.46;102742.53;5015184;28;20037;-81
2021/08/29 00:57:18;;;;;;;11.88;8.38;;;;;;;21.83;45.46;102743.47;5032653;28;20037;-82
2021/08/29 00:59:44;;;;;;;11.93;7.85;;;;;;;21.89;45.55;102747.66;5032460;28;20112;-81
2021/08/29 01:02:23;;;;;;;16.88;8.73;;;;;;;21.88;45.38;102745.25;5014796;28;20384;-81
2021/08/29 01:05:06;;;;;;;11.07;8.63;;;;;;;21.82;45.78;102746.59;5015376;28;20056;-83
2021/08/29 01:07:50;;;;;;;12.43;8.57;;;;;;;21.73;46.09;102743.91;5031141;28;20050;-87
2021/08/29 01:10:20;;;;;;;13.23;8.75;;;;;;;21.78;45.88;102746.47;5047950;28;20480;-83
2021/08/29 01:12:50;;;;;;;11.88;9.23;;;;;;;21.81;45.75;102740.22;5032747;28;20044;-82
2021/08/29 01:15:20;;;;;;;14.48;9.68;;;;;;;21.77;46.06;102746.81;5036218;28;20025;-81
2021/08/29 01:17:48;;;;;;;13.10;10.05;;;;;;;21.78;45.91;102737.31;5018283;28;20033;-83
2021/08/29 01:20:55;;;;;;;14.25;9.18;;;;;;;21.74;46.47;102741.94;5036385;28;20025;-83
2021/08/29 01:23:22;;;;;;;13.88;9.60;;;;;;;21.82;45.93;102730.72;5018419;28;20025;-82
2021/08/29 01:26:01;;;;;;;11.05;9.40;;;;;;;21.77;46.36;102738.47;5018211;28;20095;-86
2021/08/29 01:28:56;;;;;;;14.25;9.70;;;;;;;21.74;46.57;102733.59;5018119;28;20056;-81
2021/08/29 01:31:25;;;;;;;12.07;10.05;;;;;;;21.84;46.23;102739.56;5013606;28;20042;-82
2021/08/29 01:33:51;;;;;;;14.07;10.35;;;;;;;21.88;46.30;102734.09;5018564;28;20502;-83
2021/08/29 01:36:18;;;;;;;13.85;11.32;;;;;;;21.85;46.64;102740.38;5017958;28;20025;-83
2021/08/29 01:38:46;;;;;;;13.73;10.18;;;;;;;21.95;46.48;102742.72;5018131;28;20044;-83
2021/08/29 01:41:14;;;;;;;15.90;11.48;;;;;;;22.03;46.86;102746.56;5018224;28;20029;-82
2021/08/29 01:43:41;;;;;;;22.30;16.67;;;;;;;22.09;47.33;102743.25;5018062;28;20040;-82
2021/08/29 01:46:07;;;;;;;20.80;11.25;;;;;;;22.28;47.09;102747.47;5018055;28;20022;-81
2021/08/29 01:48:34;;;;;;;15.00;10.05;;;;;;;22.32;47.37;102738.09;5035890;28;20021;-81
2021/08/29 01:51:01;;;;;;;15.88;10.57;;;;;;;22.29;47.25;102738.78;5017894;28;20104;-81
2021/08/29 01:53:27;;;;;;;38.72;17.65;;;;;;;22.39;47.53;102749.47;5017601;28;20024;-83
2021/08/29 01:55:53;;;;;;;41.95;20.23;;;;;;;22.68;48.23;102744.88;5017860;28;20025;-81
2021/08/29 01:58:18;;;;;;;40.72;18.83;;;;;;;22.94;48.69;102747.34;5017578;28;20031;-81
2021/08/29 02:00:56;;;;;;;38.05;19.13;;;;;;;23.11;49.00;102744.28;5017748;28;20550;-83
2021/08/29 02:03:22;;;;;;;23.70;14.00;;;;;;;23.16;48.86;102744.06;5035267;28;20029;-80
2021/08/29 02:05:53;;;;;;;33.22;19.30;;;;;;;23.14;49.29;102746.41;5017455;28;20056;-82
2021/08/29 02:08:20;;;;;;;37.88;20.55;;;;;;;23.24;49.63;102745.91;5017450;28;20037;-83
2021/08/29 02:10:49;;;;;;;33.85;20.88;;;;;;;23.35;50.00;102751.81;5017394;28;20037;-88
2021/08/29 02:13:20;;;;;;;34.85;20.98;;;;;;;23.44;49.92;102743.31;5017370;28;20029;-81
2021/08/29 02:15:52;;;;;;;31.65;20.38;;;;;;;23.48;50.17;102749.78;5017423;28;20621;-81
2021/08/29 02:18:22;;;;;;;30.67;20.65;;;;;;;23.51;50.77;102744.34;5035249;28;20033;-89
2021/08/29 02:20:50;;;;;;;31.80;21.38;;;;;;;23.55;50.61;102738.84;5017390;28;20387;-81
2021/08/29 02:23:17;;;;;;;33.47;22.23;;;;;;;23.59;50.40;102737.00;5016586;28;20037;-82
2021/08/29 02:25:47;;;;;;;29.58;20.33;;;;;;;23.59;50.82;102738.97;5016940;28;20112;-82
2021/08/29 02:28:14;;;;;;;32.13;20.27;;;;;;;23.64;50.55;102736.75;5017009;28;20045;-82
2021/08/29 02:30:41;;;;;;;31.08;19.88;;;;;;;23.65;50.94;102735.56;5050139;28;20155;-82
2021/08/29 02:33:07;;;;;;;31.40;20.50;;;;;;;23.48;51.28;102733.06;5017193;28;20030;-83
2021/08/29 02:35:33;;;;;;;32.15;21.10;;;;;;;23.46;51.38;102739.00;5017176;28;20053;-83
2021/08/29 02:38:02;;;;;;;30.27;21.02;;;;;;;23.45;51.72;102733.78;5017047;28;20102;-89
2021/08/29 02:40:44;;;;;;;28.42;19.17;;;;;;;23.46;51.62;102735.41;5016746;28;20116;-82
2021/08/29 02:43:10;;;;;;;27.23;19.63;;;;;;;23.49;51.61;102732.69;5016672;28;20033;-83
2021/08/29 02:45:39;;;;;;;27.75;19.52;;;;;;;23.45;52.00;102731.78;5016698;28;20114;-81
2021/08/29 02:48:05;;;;;;;27.77;19.88;;;;;;;23.53;51.50;102735.59;5034500;28;20032;-82
2021/08/29 02:50:31;;;;;;;25.48;18.90;;;;;;;23.62;51.08;102736.28;5016692;28;20418;-82
2021/08/29 02:52:57;;;;;;;23.65;18.65;;;;;;;23.66;50.93;102739.22;5016600;28;20033;-82
2021/08/29 02:55:24;;;;;;;25.95;18.15;;;;;;;23.71;50.90;102748.13;5034241;28;20391;-82
2021/08/29 02:57:59;;;;;;;26.70;17.77;;;;;;;23.70;50.43;102746.50;5034004;28;20029;-81
2021/08/29 03:00:25;;;;;;;23.83;17.17;;;;;;;23.70;50.69;102742.91;5034404;28;20060;-82
2021/08/29 03:02:51;;;;;;;23.30;17.17;;;;;;;23.72;50.76;102744.16;5016321;28;20065;-80
2021/08/29 03:05:17;;;;;;;21.60;17.02;;;;;;;23.68;50.78;102739.66;5016196;28;20021;-84
2021/08/29 03:07:43;;;;;;;21.10;16.13;;;;;;;23.63;50.71;102740.72;5016246;28;20045;-82
2021/08/29 03:10:09;;;;;;;23.17;15.60;;;;;;;23.60;50.76;102740.59;5034041;28;20026;-81
2021/08/29 03:12:36;;;;;;;20.77;16.05;;;;;;;23.60;50.50;102741.44;5016501;28;20037;-81
2021/08/29 03:15:01;;;;;;;22.70;17.00;;;;;;;23.61;50.94;102736.66;5016424;28;20033;-82
2021/08/29 03:17:27;;;;;;;20.80;16.20;;;;;;;23.63;50.51;102735.13;5016248;28;20029;-82
2021/08/29 03:19:55;;;;;;;24.50;16.20;;;;;;;23.64;51.04;102727.56;5015830;28;20053;-83
2021/08/29 03:22:21;;;;;;;21.40;15.30;;;;;;;23.61;50.78;102729.09;5013680;28;20033;-81
2021/08/29 03:24:47;;;;;;;21.05;15.43;;;;;;;23.66;50.99;102736.41;5016282;28;20116;-82
2021/08/29 03:27:13;;;;;;;20.02;14.93;;;;;;;23.75;50.76;102728.69;5033677;28;20033;-82
2021/08/29 03:29:39;;;;;;;22.77;16.55;;;;;;;23.76;50.56;102728.34;5033408;28;20048;-81
2021/08/29 03:32:06;;;;;;;21.15;15.85;;;;;;;23.76;50.78;102724.75;5015685;28;20503;-83
2021/08/29 03:34:35;;;;;;;24.13;17.70;;;;;;;23.67;50.83;102729.66;5015312;28;20243;-81
2021/08/29 03:37:03;;;;;;;23.95;17.17;;;;;;;23.72;50.67;102732.19;5015078;28;20091;-81
2021/08/29 03:39:29;;;;;;;27.27;18.20;;;;;;;23.77;50.61;102732.75;5033367;28;20025;-82
2021/08/29 03:41:57;;;;;;;38.00;22.23;;;;;;;23.75;50.75;102732.31;5015701;28;20030;-82
2021/08/29 03:44:23;;;;;;;34.33;21.75;;;;;;;23.78;50.54;102736.34;5033462;28;20108;-79
2021/08/29 03:46:48;;;;;;;32.75;22.55;;;;;;;23.75;50.81;102726.72;5015280;28;20137;-80
2021/08/29 03:49:14;;;;;;;39.85;21.63;;;;;;;23.79;50.69;102724.81;5015592;28;20029;-84
2021/08/29 03:51:42;;;;;;;34.92;22.05;;;;;;;23.83;50.42;102732.50;5015526;28;20049;-82
2021/08/29 03:54:08;;;;;;;36.40;22.35;;;;;;;23.84;50.18;102725.75;5033054;28;20077;-87
2021/08/29 03:56:35;;;;;;;41.05;24.63;;;;;;;23.82;50.67;102728.09;5033147;28;20052;-81
2021/08/29 03:59:02;;;;;;;38.67;22.65;;;;;;;23.76;50.72;102730.31;5033083;28;20057;-81
2021/08/29 04:01:28;;;;;;;36.78;22.73;;;;;;;23.77;50.72;102723.56;5033317;28;20466;-81
2021/08/29 04:03:54;;;;;;;37.50;22.38;;;;;;;23.77;50.71;102723.56;5015574;28;20041;-85
2021/08/29 04:06:20;;;;;;;41.33;24.50;;;;;;;23.77;50.49;102721.59;5011506;28;20050;-83
2021/08/29 04:08:48;;;;;;;37.65;23.40;;;;;;;23.75;50.84;102735.09;5011801;28;20025;-82
2021/08/29 04:11:14;;;;;;;36.70;23.45;;;;;;;23.70;50.89;102729.75;5011769;28;20053;-81
2021/08/29 04:13:40;;;;;;;37.05;24.15;;;;;;;23.66;50.84;102728.84;5012753;28;20449;-82
2021/08/29 04:16:09;;;;;;;35.55;22.60;;;;;;;23.70;51.10;102723.38;5013391;28;20021;-82
2021/08/29 04:18:40;;;;;;;35.87;22.73;;;;;;;23.75;50.73;102725.91;5011750;28;20026;-80
2021/08/29 04:21:06;;;;;;;34.20;22.77;;;;;;;23.79;50.66;102727.63;5028230;28;20259;-83
2021/08/29 04:23:32;;;;;;;34.40;22.75;;;;;;;23.83;50.37;102727.72;5011782;28;20022;-88
2021/08/29 04:25:58;;;;;;;36.00;24.23;;;;;;;23.90;50.21;102724.34;5011773;28;20026;-82
2021/08/29 04:28:24;;;;;;;33.78;21.98;;;;;;;23.91;50.31;102720.38;5013012;28;20046;-80
2021/08/29 04:30:51;;;;;;;34.97;22.52;;;;;;;23.90;50.20;102729.91;5028234;28;20033;-81
2021/08/29 04:33:17;;;;;;;37.63;22.25;;;;;;;23.91;50.17;102725.94;5011926;28;20029;-81
2021/08/29 04:35:43;;;;;;;34.08;22.17;;;;;;;23.88;50.68;102721.06;5013016;28;20030;-81
2021/08/29 04:38:08;;;;;;;32.78;21.42;;;;;;;23.93;50.13;102720.81;5011508;28;20026;-82
2021/08/29 04:40:34;;;;;;;34.47;22.02;;;;;;;23.88;50.52;102715.47;5013033;28;20599;-82
2021/08/29 04:43:00;;;;;;;35.83;23.05;;;;;;;23.92;50.18;102720.00;5028069;28;20550;-81
2021/08/29 04:45:25;;;;;;;30.33;21.02;;;;;;;23.97;50.20;102721.72;5013049;28;20026;-81
2021/08/29 04:47:51;;;;;;;33.70;21.50;;;;;;;23.94;50.15;102714.06;5013996;28;20621;-81
2021/08/29 04:50:18;;;;;;;30.38;19.75;;;;;;;23.94;50.02;102712.06;5016910;28;20396;-82
2021/08/29 04:52:43;;;;;;;33.42;21.10;;;;;;;23.99;50.13;102714.63;5016848;28;20037;-80
2021/08/29 04:55:09;;;;;;;33.10;22.08;;;;;;;24.08;50.17;102708.84;5016783;28;20393;-82
2021/08/29 04:57:35;;;;;;;33.20;21.88;;;;;;;24.02;49.93;102713.88;5015466;28;20105;-80
2021/08/29 05:00:00;;;;;;;32.80;22.13;;;;;;;23.99;50.09;102714.63;5032039;28;20025;-81
2021/08/29 05:02:26;;;;;;;31.55;20.58;;;;;;;23.99;50.41;102711.81;5032045;28;20031;-87
2021/08/29 05:04:51;;;;;;;30.08;20.33;;;;;;;23.99;50.10;102716.59;5015149;28;20037;-82
2021/08/29 05:07:17;;;;;;;37.83;22.40;;;;;;;24.02;50.26;102713.06;5015228;28;20034;-89
2021/08/29 05:09:43;;;;;;;32.78;21.50;;;;;;;24.00;50.21;102718.22;5016540;28;20033;-82
2021/08/29 05:12:08;;;;;;;38.22;22.48;;;;;;;24.04;50.11;102719.13;5018200;28;20026;-83
2021/08/29 05:14:34;;;;;;;35.65;22.55;;;;;;;24.04;49.94;102714.38;5031641;28;20017;-82
2021/08/29 05:16:59;;;;;;;31.70;19.95;;;;;;;24.06;50.10;102719.59;5030944;28;20022;-80
2021/08/29 05:19:25;;;;;;;39.90;24.27;;;;;;;24.03;50.20;102714.69;5028273;28;20212;-81
2021/08/29 05:21:50;;;;;;;44.47;23.85;;;;;;;24.03;50.31;102718.31;5018110;28;20514;-82
2021/08/29 05:24:16;;;;;;;48.05;25.83;;;;;;;24.06;49.98;102714.00;5014991;28;20493;-80
2021/08/29 05:26:41;;;;;;;41.97;25.25;;;;;;;24.07;50.11;102715.63;5014982;28;20091;-82
2021/08/29 05:29:07;;;;;;;40.17;25.02;;;;;;;24.12;50.27;102717.34;5031556;28;20116;-81
2021/08/29 05:31:32;;;;;;;39.28;23.77;;;;;;;24.09;50.16;102716.88;5016105;28;20037;-80
2021/08/29 05:33:58;;;;;;;45.92;26.10;;;;;;;24.09;50.14;102716.88;5014936;28;20026;-80
2021/08/29 05:36:24;;;;;;;43.58;25.77;;;;;;;24.15;50.32;102722.22;5014761;28;20458;-81
2021/08/29 05:38:49;;;;;;;38.25;25.40;;;;;;;24.18;50.35;102719.53;5016158;28;20041;-82
2021/08/29 05:41:15;;;;;;;39.40;24.33;;;;;;;24.20;50.38;102719.97;5031351;28;20089;-81
2021/08/29 05:43:40;;;;;;;44.05;27.27;;;;;;;24.23;49.98;102730.41;5016005;28;20503;-82
2021/08/29 05:46:06;;;;;;;53.10;27.05;;;;;;;24.22;50.38;102730.78;5016240;28;20484;-82
2021/08/29 05:48:32;;;;;;;47.05;26.40;;;;;;;24.20;50.38;102736.72;5031094;28;20026;-81
2021/08/29 05:50:57;;;;;;;44.58;27.27;;;;;;;24.21;50.26;102738.34;5016012;28;20080;-83
2021/08/29 05:53:23;;;;;;;42.78;24.60;;;;;;;24.23;50.54;102740.78;5016047;28;20432;-80
2021/08/29 05:55:48;;;;;;;38.47;25.73;;;;;;;24.29;50.20;102736.56;5014679;28;20428;-81
2021/08/29 05:58:14;;;;;;;36.53;25.38;;;;;;;24.29;50.19;102740.16;5030516;28;20050;-82
2021/08/29 06:00:40;;;;;;;54.22;29.48;;;;;;;24.25;50.18;102742.03;5015453;28;20038;-82
2021/08/29 06:03:05;;;;;;;56.00;28.75;;;;;;;24.27;50.56;102738.91;5030700;28;20033;-82
2021/08/29 06:05:31;;;;;;;53.10;28.90;;;;;;;24.31;50.39;102737.81;5014532;28;20092;-82
2021/08/29 06:07:59;;;;;;;63.20;30.42;;;;;;;24.27;50.19;102745.28;5047115;28;20074;-80
2021/08/29 06:10:24;;;;;;;57.38;28.02;;;;;;;24.22;50.62;102734.38;5014194;28;20045;-82
2021/08/29 06:12:50;;;;;;;50.92;29.58;;;;;;;24.31;50.13;102740.59;5015395;28;20026;-80
2021/08/29 06:15:16;;;;;;;50.13;28.02;;;;;;;24.38;50.28;102742.81;5014129;28;20034;-82
2021/08/29 06:17:41;;;;;;;55.90;30.13;;;;;;;24.39;49.96;102738.03;5013775;28;20026;-85
2021/08/29 06:20:07;;;;;;;54.38;29.85;;;;;;;24.35;50.05;102737.94;5015299;28;20038;-82
2021/08/29 06:22:33;;;;;;;54.38;29.33;;;;;;;24.39;50.15;102733.25;5015321;28;20037;-82
2021/08/29 06:24:58;;;;;;;57.00;28.40;;;;;;;24.41;50.23;102736.50;5015143;28;20030;-81
2021/08/29 06:27:24;;;;;;;45.35;26.58;;;;;;;24.42;50.12;102735.34;5013995;28;20026;-80
2021/08/29 06:29:50;;;;;;;50.95;27.48;;;;;;;24.41;50.26;102746.84;5015169;28;20036;-85
2021/08/29 06:32:16;;;;;;;42.25;25.10;;;;;;;24.43;50.33;102742.53;5014945;28;20469;-80
2021/08/29 06:34:41;;;;;;;29.42;18.50;;;;;;;24.44;50.36;102743.34;5013850;28;20480;-89
2021/08/29 06:37:07;;;;;;;26.85;18.23;;;;;;;24.38;50.59;102747.56;5014962;28;20127;-80
2021/08/29 06:39:32;;;;;;;20.58;14.00;;;;;;;24.42;50.39;102748.50;5013770;28;20455;-79
2021/08/29 06:41:58;;;;;;;21.70;13.07;;;;;;;24.50;49.85;102748.31;5013645;28;20389;-79
2021/08/29 06:44:23;;;;;;;18.05;13.73;;;;;;;24.48;50.27;102739.47;5013408;28;20444;-80
2021/08/29 06:46:49;;;;;;;17.67;12.70;;;;;;;24.53;50.29;102741.19;5013880;28;20026;-89
2021/08/29 06:49:15;;;;;;;13.70;10.73;;;;;;;24.50;50.30;102739.94;5013876;28;20108;-81
2021/08/29 06:51:40;;;;;;;13.15;10.07;;;;;;;24.46;49.86;102749.38;5013151;28;20025;-80
2021/08/29 06:54:06;;;;;;;14.93;10.73;;;;;;;24.51;50.00;102737.94;5014324;28;20034;-88
2021/08/29 06:56:31;;;;;;;14.63;10.95;;;;;;;24.56;50.07;102748.84;5013367;28;20115;-81
2021/08/29 06:58:58;;;;;;;14.82;11.00;;;;;;;24.51;50.02;102747.13;5014192;28;20053;-80
2021/08/29 07:01:23;;;;;;;16.05;10.00;;;;;;;24.60;49.92;102749.75;5013169;28;20029;-81
2021/08/29 07:03:49;;;;;;;15.38;9.25;;;;;;;24.59;49.98;102753.72;5012994;28;20385;-81
2021/08/29 07:06:14;;;;;;;10.43;8.38;;;;;;;24.66;49.26;102741.91;5013013;28;20123;-84
2021/08/29 07:08:40;;;;;;;9.52;7.30;;;;;;;24.59;49.61;102740.56;5014742;28;20028;-81
2021/08/29 07:11:05;;;;;;;8.68;7.35;;;;;;;24.61;49.34;102746.59;5013106;28;20030;-87
2021/08/29 07:13:31;;;;;;;11.60;7.00;;;;;;;24.56;49.47;102744.09;5015300;28;20453;-88
2021/08/29 07:15:57;;;;;;;9.60;6.20;;;;;;;24.45;49.29;102742.97;5013509;28;20030;-81
2021/08/29 07:18:23;;;;;;;7.38;5.82;;;;;;;24.49;49.25;102745.88;5014330;28;20030;-88
2021/08/29 07:20:48;;;;;;;6.93;5.63;;;;;;;24.47;49.23;102745.41;5015045;28;20079;-81
2021/08/29 07:23:14;;;;;;;8.43;5.70;;;;;;;24.45;48.84;102748.56;5014418;28;20069;-78
2021/08/29 07:25:40;;;;;;;7.15;5.57;;;;;;;24.49;48.59;102754.28;5013551;28;20117;-79
2021/08/29 07:28:05;;;;;;;8.75;5.45;;;;;;;24.46;48.71;102754.97;5013375;28;20029;-79
2021/08/29 07:30:32;;;;;;;6.80;5.13;;;;;;;24.49;48.61;102751.47;5013599;28;20026;-84
2021/08/29 07:32:58;;;;;;;5.88;4.80;;;;;;;24.51;48.52;102746.34;5012476;28;20030;-84
2021/08/29 07:35:23;;;;;;;5.30;3.60;;;;;;;24.34;48.43;102753.09;5013374;28;20049;-81
2021/08/29 07:37:49;;;;;;;4.47;3.30;;;;;;;24.27;48.10;102738.91;5013288;28;20098;-82
2021/08/29 07:40:14;;;;;;;5.25;3.42;;;;;;;24.25;47.89;102738.44;5012091;28;20026;-81
2021/08/29 07:42:40;;;;;;;4.85;3.50;;;;;;;24.17;47.98;102743.00;5013382;28;20058;-78
2021/08/29 07:45:06;;;;;;;6.38;3.95;;;;;;;24.18;48.12;102747.44;5013063;28;20092;-81
2021/08/29 07:47:32;;;;;;;5.65;3.85;;;;;;;24.26;48.19;102743.69;5012115;28;20047;-83
2021/08/29 07:49:58;;;;;;;9.15;4.65;;;;;;;24.25;48.05;102749.59;5012413;28;20499;-83
2021/08/29 07:52:24;;;;;;;5.80;4.03;;;;;;;24.25;48.11;102750.41;5013484;28;20041;-80
2021/08/29 07:54:50;;;;;;;4.80;3.72;;;;;;;24.28;47.87;102740.53;5013265;28;20029;-77
2021/08/29 07:57:15;;;;;;;5.53;4.07;;;;;;;24.26;47.93;102749.25;5013166;28;20030;-80
2021/08/29 07:59:41;;;;;;;6.05;3.28;;;;;;;24.34;47.40;102747.50;5013163;28;20036;-78
2021/08/29 08:02:07;;;;;;;4.90;3.60;;;;;;;24.41;47.50;102749.63;5013205;28;20105;-78
2021/08/29 08:04:32;;;;;;;4.82;3.65;;;;;;;24.41;47.10;102749.63;5011763;28;20037;-78
2021/08/29 08:06:58;;;;;;;5.95;3.25;;;;;;;24.43;46.96;102748.13;5024228;28;20495;-78
2021/08/29 08:09:23;;;;;;;4.15;2.58;;;;;;;24.57;46.75;102744.91;5026771;28;20064;-77
2021/08/29 08:11:49;;;;;;;5.70;3.25;;;;;;;24.61;46.63;102748.56;5026274;28;20057;-75
2021/08/29 08:14:15;;;;;;;4.40;3.42;;;;;;;24.71;45.98;102744.41;5012239;28;20106;-77
2021/08/29 08:16:40;;;;;;;5.45;2.95;;;;;;;24.77;45.88;102748.56;5020777;28;20056;-78
2021/08/29 08:19:06;;;;;;;6.57;3.47;;;;;;;24.76;45.76;102752.53;5024402;28;20109;-84
2021/08/29 08:21:32;;;;;;;6.35;3.15;;;;;;;24.75;45.46;102762.09;5025164;28;20025;-84
2021/08/29 08:23:58;;;;;;;5.55;3.28;;;;;;;24.76;45.45;102758.94;5024809;28;20095;-82
2021/08/29 08:26:23;;;;;;;5.53;3.08;;;;;;;24.74;45.02;102764.09;5027640;28;20065;-80
2021/08/29 08:28:49;;;;;;;4.32;2.95;;;;;;;24.79;44.72;102761.03;5045665;28;20756;-79
2021/08/29 08:31:14;;;;;;;3.47;2.63;;;;;;;24.81;44.80;102758.66;4999795;28;20478;-79
2021/08/29 08:33:40;;;;;;;4.35;2.45;;;;;;;24.88;44.49;102755.25;4999463;28;20041;-82
2021/08/29 08:36:06;;;;;;;3.53;2.40;;;;;;;24.91;44.42;102758.09;5013135;28;20041;-73
2021/08/29 08:38:31;;;;;;;8.13;2.83;;;;;;;24.89;44.50;102760.47;5029298;28;20400;-78
2021/08/29 08:40:57;;;;;;;7.78;2.55;;;;;;;24.92;44.67;102756.94;5012870;28;20120;-82
2021/08/29 08:43:22;;;;;;;5.55;2.63;;;;;;;24.98;44.68;102756.66;5003623;28;20199;-74
2021/08/29 08:45:49;;;;;;;4.03;2.05;;;;;;;25.04;44.36;102763.63;5013776;28;20021;-82
2021/08/29 08:48:18;;;;;;;3.78;2.20;;;;;;;25.00;44.23;102757.09;5014415;28;20062;-71
2021/08/29 08:50:47;;;;;;;3.35;2.13;;;;;;;25.00;44.02;102759.91;4995518;28;20022;-81
2021/08/29 08:53:17;;;;;;;3.58;1.55;;;;;;;25.05;43.86;102763.25;5013598;28;20148;-79
2021/08/29 08:55:45;;;;;;;2.75;1.55;;;;;;;25.17;43.58;102762.34;4994388;28;20461;-78
2021/08/29 08:58:11;;;;;;;5.22;2.50;;;;;;;25.14;43.78;102765.84;4995525;28;20042;-77
2021/08/29 09:00:37;;;;;;;4.03;1.85;;;;;;;25.12;43.51;102760.63;5011906;28;20449;-74
2021/08/29 09:03:04;;;;;;;2.92;1.80;;;;;;;25.07;43.36;102754.50;5023978;28;20048;-73
2021/08/29 09:05:30;;;;;;;2.92;1.58;;;;;;;25.07;43.41;102762.88;4992510;28;20112;-71
2021/08/29 09:07:58;;;;;;;2.55;1.63;;;;;;;25.12;43.54;102759.81;5011659;28;20041;-72
2021/08/29 09:10:23;;;;;;;6.50;2.78;;;;;;;25.15;43.37;102761.88;5012829;28;20056;-71
2021/08/29 09:12:57;;;;;;;3.67;1.88;;;;;;;25.13;43.30;102764.22;5011494;28;20072;-77
2021/08/29 09:15:22;;;;;;;3.03;2.25;;;;;;;25.20;42.98;102772.78;4995786;28;20029;-71
2021/08/29 09:17:48;;;;;;;4.95;2.22;;;;;;;25.18;43.32;102781.56;5012211;28;20038;-74
2021/08/29 09:20:15;;;;;;;5.07;2.28;;;;;;;25.23;42.95;102777.66;5013718;28;20034;-81
2021/08/29 09:22:42;;;;;;;4.03;1.90;;;;;;;25.29;42.99;102779.00;5012231;28;20448;-77
2021/08/29 09:25:17;;;;;;;4.00;2.28;;;;;;;25.30;43.10;102775.00;4995236;28;20144;-74
2021/08/29 09:27:47;;;;;;;3.05;1.90;;;;;;;25.27;43.19;102772.97;5012626;28;20130;-74
2021/08/29 09:30:15;;;;;;;3.38;2.35;;;;;;;25.26;43.23;102773.34;4996317;28;20029;-71
2021/08/29 09:32:49;;;;;;;4.20;1.92;;;;;;;25.31;43.04;102781.41;5011585;28;20124;-71
2021/08/29 09:35:15;;;;;;;2.38;1.60;;;;;;;25.16;43.83;102772.72;5022669;28;20460;-78
2021/08/29 09:37:41;;;;;;;2.53;1.70;;;;;;;25.09;43.53;102769.75;5032367;28;20037;-71
2021/08/29 09:40:16;;;;;;;2.05;1.52;;;;;;;25.06;44.01;102778.06;5033330;28;20030;-70
2021/08/29 09:42:46;;;;;;;3.47;1.52;;;;;;;25.02;44.00;102777.16;5032926;28;20379;-70
2021/08/29 09:45:31;;;;;;;4.50;1.83;;;;;;;24.96;43.79;102773.00;5032066;28;20021;-79
2021/08/29 09:48:03;;;;;;;2.53;1.85;;;;;;;24.73;44.50;102778.44;5015778;28;20037;-76
2021/08/29 09:50:31;;;;;;;3.75;2.05;;;;;;;24.79;43.80;102766.63;5032952;28;20379;-73
2021/08/29 09:53:19;;;;;;;5.35;1.92;;;;;;;24.78;44.04;102778.94;5014558;28;20384;-73
2021/08/29 09:55:47;;;;;;;4.43;2.20;;;;;;;24.71;44.07;102778.78;5017923;28;20030;-74
2021/08/29 09:58:32;;;;;;;4.07;2.25;;;;;;;24.71;44.34;102776.00;5017501;28;20045;-73
2021/08/29 10:01:11;;;;;;;3.22;2.00;;;;;;;24.80;43.93;102784.19;5002023;28;20432;-73
2021/08/29 10:03:47;;;;;;;3.13;1.43;;;;;;;24.65;44.60;102785.81;5019967;28;20026;-75
2021/08/29 10:06:19;;;;;;;4.15;1.80;;;;;;;24.81;44.58;102778.25;5018821;28;20271;-74
2021/08/29 10:08:46;;;;;;;4.75;1.73;;;;;;;24.76;44.68;102780.50;5000751;28;20064;-74
2021/08/29 10:11:12;;;;;;;5.65;1.95;;;;;;;24.94;44.13;102780.91;5018121;28;20132;-76
2021/08/29 10:13:41;;;;;;;2.78;1.55;;;;;;;24.92;44.14;102776.50;5019525;28;20548;-80
2021/08/29 10:16:08;;;;;;;5.57;2.30;;;;;;;24.96;44.21;102773.81;5020633;28;20021;-82
2021/08/29 10:18:37;;;;;;;3.72;1.73;;;;;;;25.04;44.08;102774.81;5020246;28;20267;-83
2021/08/29 10:21:04;;;;;;;5.50;1.80;;;;;;;25.11;43.74;102778.59;5000506;28;20025;-84
2021/08/29 10:23:30;;;;;;;3.72;2.00;;;;;;;25.20;43.31;102781.19;5019390;28;20051;-80
2021/08/29 10:25:57;;;;;;;5.70;2.33;;;;;;;25.16;43.23;102772.72;5018804;28;20117;-81
2021/08/29 10:28:31;;;;;;;3.25;1.85;;;;;;;25.11;43.69;102780.59;5019624;28;20567;-80
2021/08/29 10:31:01;;;;;;;7.47;3.40;;;;;;;25.10;43.28;102771.38;5018921;28;20021;-80
2021/08/29 10:33:27;;;;;;;3.20;2.00;;;;;;;25.39;42.23;102772.84;5018188;28;20032;-83
2021/08/29 10:35:52;;;;;;;3.22;1.73;;;;;;;25.34;42.32;102778.72;5019363;28;20040;-81
2021/08/29 10:38:20;;;;;;;4.75;2.00;;;;;;;25.38;42.23;102768.41;5019631;28;20496;-79
2021/08/29 10:40:46;;;;;;;4.20;2.20;;;;;;;25.43;42.15;102765.31;5018999;28;20369;-81
2021/08/29 10:43:14;;;;;;;3.45;1.85;;;;;;;25.46;41.89;102770.19;5018093;28;20388;-82
2021/08/29 10:45:41;;;;;;;7.00;2.30;;;;;;;25.46;42.03;102772.97;5001150;28;20506;-85
2021/08/29 10:48:14;;;;;;;2.53;1.70;;;;;;;25.49;41.80;102774.25;5021060;28;20098;-81
2021/08/29 10:50:40;;;;;;;7.57;2.50;;;;;;;25.64;41.93;102769.75;5019634;28;20025;-86
2021/08/29 10:53:28;;;;;;;5.55;2.03;;;;;;;25.72;41.57;102780.78;5001865;28;20021;-83
2021/08/29 10:56:16;;;;;;;3.38;1.98;;;;;;;25.81;41.29;102779.75;5001920;28;20718;-87
2021/08/29 10:58:43;;;;;;;4.47;1.83;;;;;;;25.73;41.29;102778.78;5003752;28;20100;-84
2021/08/29 11:01:40;;;;;;;2.33;1.55;;;;;;;25.81;41.31;102782.53;5005515;28;20080;-87
2021/08/29 11:04:17;;;;;;;3.83;2.00;;;;;;;25.91;40.93;102777.13;5034976;28;20029;-88
2021/08/29 11:06:49;;;;;;;5.68;1.75;;;;;;;26.01;40.95;102778.56;5029069;28;20042;-85
2021/08/29 11:09:37;;;;;;;3.88;2.55;;;;;;;26.10;40.41;102781.13;5002356;28;20044;-86
2021/08/29 11:12:05;;;;;;;5.72;2.58;;;;;;;26.12;40.29;102775.94;5002066;28;20025;-85
2021/08/29 11:14:44;;;;;;;4.40;1.75;;;;;;;26.13;40.65;102785.97;5021055;28;20033;-85
2021/08/29 11:17:10;;;;;;;4.65;1.60;;;;;;;26.28;40.14;102777.47;5019130;28;20120;-84
2021/08/29 11:19:41;;;;;;;5.07;2.35;;;;;;;26.32;40.14;102771.13;5021796;28;20132;-83